createdAt,value
2018-07-27T00:00:59.374Z,47.90
2018-07-27T00:03:28.318Z,48.00
2018-07-27T00:05:57.268Z,48.00
2018-07-27T00:08:26.209Z,48.00
2018-07-27T00:10:55.144Z,48.10
2018-07-27T00:13:24.514Z,48.20
2018-07-27T00:15:53.408Z,48.30
2018-07-27T00:18:22.375Z,48.30
2018-07-27T00:20:51.300Z,48.30
2018-07-27T00:23:20.312Z,48.40
2018-07-27T00:25:49.244Z,48.70
2018-07-27T00:28:18.556Z,48.50
2018-07-27T00:30:47.817Z,48.60
2018-07-27T00:33:16.804Z,48.70
2018-07-27T00:35:46.112Z,48.80
2018-07-27T00:38:15.139Z,48.90
2018-07-27T00:40:44.037Z,49.00
2018-07-27T00:43:13.047Z,49.10
2018-07-27T00:45:41.967Z,49.20
2018-07-27T00:48:11.071Z,49.30
2018-07-27T00:50:40.010Z,49.30
2018-07-27T00:53:08.991Z,49.40
2018-07-27T00:55:38.040Z,49.50
2018-07-27T00:58:07.103Z,49.70
2018-07-27T01:00:36.036Z,49.80
2018-07-27T01:03:05.032Z,49.90
2018-07-27T01:05:33.955Z,50.00
2018-07-27T01:08:03.138Z,50.10
2018-07-27T01:10:32.008Z,50.10
2018-07-27T01:13:01.576Z,50.30
2018-07-27T01:15:30.993Z,50.30
2018-07-27T01:17:59.987Z,50.50
2018-07-27T01:20:29.016Z,50.60
2018-07-27T01:22:57.971Z,50.60
2018-07-27T01:25:26.937Z,50.60
2018-07-27T01:27:55.885Z,50.70
2018-07-27T01:30:25.167Z,50.20
2018-07-27T01:32:54.110Z,50.80
2018-07-27T01:35:23.465Z,51.00
2018-07-27T01:37:52.397Z,51.00
2018-07-27T01:40:21.369Z,51.10
2018-07-27T01:42:50.327Z,51.20
2018-07-27T01:45:19.241Z,51.30
2018-07-27T01:47:48.189Z,51.40
2018-07-27T01:50:17.108Z,51.50
2018-07-27T01:52:46.244Z,51.50
2018-07-27T01:55:15.415Z,51.60
2018-07-27T01:57:44.350Z,51.60
2018-07-27T02:00:13.313Z,51.70
2018-07-27T02:02:42.255Z,51.80
2018-07-27T02:05:11.564Z,51.80
2018-07-27T02:10:09.339Z,52.00
2018-07-27T02:12:38.613Z,52.60
2018-07-27T02:15:08.569Z,52.50
2018-07-27T02:17:37.868Z,52.20
2018-07-27T02:20:06.828Z,52.30
2018-07-27T02:22:36.274Z,52.30
2018-07-27T02:25:05.540Z,52.30
2018-07-27T02:27:34.478Z,52.40
2018-07-27T02:30:03.474Z,52.40
2018-07-27T02:32:32.559Z,52.50
2018-07-27T02:35:01.563Z,52.60
2018-07-27T02:37:30.492Z,52.60
2018-07-27T02:39:59.522Z,52.70
2018-07-27T02:42:29.360Z,52.80
2018-07-27T02:44:58.317Z,52.90
2018-07-27T02:47:27.607Z,53.00
2018-07-27T02:49:56.521Z,53.00
2018-07-27T02:52:25.679Z,53.00
2018-07-27T02:54:54.819Z,53.10
2018-07-27T02:57:23.817Z,53.30
2018-07-27T02:59:52.769Z,53.30
2018-07-27T03:02:21.691Z,53.40
2018-07-27T03:04:50.623Z,53.50
2018-07-27T03:07:19.884Z,53.50
2018-07-27T03:09:48.924Z,53.60
2018-07-27T03:12:17.990Z,53.70
2018-07-27T03:14:46.967Z,53.90
2018-07-27T03:17:15.893Z,54.00
2018-07-27T03:19:44.835Z,54.20
2018-07-27T03:22:14.261Z,54.30
2018-07-27T03:24:43.337Z,54.40
2018-07-27T03:27:12.291Z,54.60
2018-07-27T03:29:41.235Z,54.70
2018-07-27T03:32:10.211Z,54.80
2018-07-27T03:34:39.141Z,54.80
2018-07-27T03:37:08.076Z,54.90
2018-07-27T03:39:37.040Z,54.90
2018-07-27T03:42:06.371Z,54.90
2018-07-27T03:44:35.638Z,54.90
2018-07-27T03:47:04.670Z,55.00
2018-07-27T03:49:33.603Z,55.00
2018-07-27T03:52:02.894Z,55.00
2018-07-27T03:54:31.808Z,55.10
2018-07-27T03:57:00.748Z,55.00
2018-07-27T03:59:29.680Z,55.00
2018-07-27T04:01:58.774Z,55.00
2018-07-27T04:04:27.727Z,55.00
2018-07-27T04:06:56.735Z,55.00
2018-07-27T04:09:25.664Z,55.00
2018-07-27T04:11:54.634Z,55.00
2018-07-27T04:14:23.688Z,55.00
2018-07-27T04:16:52.727Z,55.00
2018-07-27T04:19:21.677Z,55.00
2018-07-27T04:24:19.296Z,55.10
2018-07-27T04:26:48.249Z,55.00
2018-07-27T04:29:17.339Z,55.00
2018-07-27T04:31:46.331Z,55.00
2018-07-27T04:34:15.342Z,55.00
2018-07-27T04:36:44.436Z,55.10
2018-07-27T04:39:13.361Z,55.00
2018-07-27T04:41:42.679Z,55.00
2018-07-27T04:44:11.621Z,55.10
2018-07-27T04:46:40.702Z,55.10
2018-07-27T04:49:10.067Z,55.20
2018-07-27T04:51:39.011Z,55.30
2018-07-27T04:54:07.957Z,55.40
2018-07-27T04:56:37.090Z,55.40
2018-07-27T04:59:06.495Z,55.30
2018-07-27T05:01:35.474Z,55.40
2018-07-27T05:04:04.817Z,55.40
2018-07-27T05:06:33.774Z,55.40
2018-07-27T05:09:08.161Z,55.30
2018-07-27T05:11:37.097Z,55.30
2018-07-27T05:14:06.373Z,55.20
2018-07-27T05:16:35.391Z,55.20
2018-07-27T05:19:04.385Z,55.10
2018-07-27T05:21:34.075Z,55.00
2018-07-27T05:24:02.991Z,54.90
2018-07-27T05:26:32.094Z,54.70
2018-07-27T05:29:01.034Z,54.70
2018-07-27T05:31:30.718Z,54.60
2018-07-27T05:33:59.678Z,54.50
2018-07-27T05:36:28.658Z,54.50
2018-07-27T05:38:58.150Z,54.50
2018-07-27T05:41:27.268Z,55.10
2018-07-27T05:43:56.197Z,54.50
2018-07-27T05:46:25.190Z,54.40
2018-07-27T05:48:54.690Z,54.30
2018-07-27T05:51:23.608Z,54.40
2018-07-27T05:53:52.632Z,54.30
2018-07-27T05:56:21.574Z,54.10
2018-07-27T05:58:50.536Z,54.10
2018-07-27T06:01:19.581Z,54.00
2018-07-27T06:03:48.543Z,54.10
2018-07-27T06:06:17.806Z,54.00
2018-07-27T06:08:46.767Z,54.00
2018-07-27T06:11:15.964Z,54.00
2018-07-27T06:13:45.050Z,53.90
2018-07-27T06:16:14.366Z,53.80
2018-07-27T06:18:43.350Z,53.70
2018-07-27T06:21:12.377Z,53.60
2018-07-27T06:23:41.587Z,53.60
2018-07-27T06:26:10.734Z,53.60
2018-07-27T06:28:39.682Z,53.60
2018-07-27T06:31:09.060Z,53.50
2018-07-27T06:33:38.002Z,53.40
2018-07-27T06:36:07.298Z,53.50
2018-07-27T06:38:36.218Z,53.40
2018-07-27T06:41:05.336Z,53.30
2018-07-27T06:43:34.875Z,53.30
2018-07-27T06:46:04.213Z,53.20
2018-07-27T06:48:33.651Z,53.10
2018-07-27T06:51:02.787Z,53.00
2018-07-27T06:53:31.743Z,52.90
2018-07-27T06:56:00.705Z,52.80
2018-07-27T06:58:29.663Z,52.70
2018-07-27T07:00:58.632Z,52.50
2018-07-27T07:03:28.096Z,52.40
2018-07-27T07:05:57.219Z,52.30
2018-07-27T07:08:26.309Z,52.20
2018-07-27T07:10:55.276Z,52.10
2018-07-27T07:13:24.260Z,52.00
2018-07-27T07:15:53.190Z,51.80
2018-07-27T07:20:50.924Z,51.70
2018-07-27T07:23:19.871Z,51.60
2018-07-27T07:25:48.946Z,51.50
2018-07-27T07:28:18.051Z,51.40
2018-07-27T07:30:47.002Z,51.30
2018-07-27T07:33:15.987Z,51.30
2018-07-27T07:35:45.114Z,51.20
2018-07-27T07:38:14.058Z,51.20
2018-07-27T07:40:43.018Z,51.20
2018-07-27T07:43:12.019Z,51.10
2018-07-27T07:45:41.008Z,51.20
2018-07-27T07:48:09.953Z,51.10
2018-07-27T07:50:38.996Z,51.00
2018-07-27T07:53:08.074Z,51.00
2018-07-27T07:55:37.426Z,51.00
2018-07-27T07:58:07.514Z,51.40
2018-07-27T08:00:36.735Z,50.90
2018-07-27T08:03:06.279Z,50.70
2018-07-27T08:05:35.361Z,50.60
2018-07-27T08:08:05.205Z,50.50
2018-07-27T08:10:34.710Z,50.40
2018-07-27T08:13:03.985Z,50.30
2018-07-27T08:15:33.003Z,50.10
2018-07-27T08:18:01.995Z,50.20
2018-07-27T08:20:30.687Z,50.20
2018-07-27T08:22:59.343Z,50.00
2018-07-27T08:25:36.613Z,49.90
2018-07-27T08:28:43.889Z,49.80
2018-07-27T08:31:12.684Z,49.60
2018-07-27T08:33:41.509Z,49.50
2018-07-27T08:36:10.388Z,49.30
2018-07-27T08:38:39.147Z,49.30
2018-07-27T08:41:08.054Z,49.20
2018-07-27T08:43:36.882Z,49.10
2018-07-27T08:46:05.613Z,49.10
2018-07-27T08:48:34.281Z,49.70
2018-07-27T08:51:02.939Z,49.20
2018-07-27T08:53:31.629Z,49.20
2018-07-27T08:56:00.273Z,49.20
2018-07-27T08:58:29.023Z,49.10
2018-07-27T09:00:57.780Z,49.00
2018-07-27T09:03:26.769Z,48.90
2018-07-27T09:05:55.808Z,48.70
2018-07-27T09:08:24.478Z,48.70
2018-07-27T09:10:53.556Z,48.60
2018-07-27T09:13:22.288Z,48.60
2018-07-27T09:15:51.280Z,48.60
2018-07-27T09:18:20.007Z,48.60
2018-07-27T09:20:49.010Z,48.40
2018-07-27T09:23:17.668Z,48.10
2018-07-27T09:25:46.497Z,48.60
2018-07-27T09:28:15.272Z,47.90
2018-07-27T09:30:43.924Z,47.70
2018-07-27T09:33:12.580Z,47.60
2018-07-27T09:35:41.318Z,47.50
2018-07-27T09:38:09.951Z,47.10
2018-07-27T09:40:39.088Z,46.90
2018-07-27T09:43:07.816Z,46.60
2018-07-27T09:45:36.484Z,46.40
2018-07-27T09:48:05.236Z,46.40
2018-07-27T09:50:33.991Z,46.30
2018-07-27T09:53:02.777Z,46.40
2018-07-27T09:55:31.997Z,46.40
2018-07-27T09:58:00.820Z,46.30
2018-07-27T10:00:35.485Z,46.40
2018-07-27T10:03:04.253Z,46.50
2018-07-27T10:05:32.923Z,46.70
2018-07-27T10:08:01.597Z,46.70
2018-07-27T10:10:30.417Z,46.70
2018-07-27T10:12:59.645Z,46.80
2018-07-27T10:15:28.897Z,46.80
2018-07-27T10:17:57.635Z,46.70
2018-07-27T10:20:26.416Z,46.60
2018-07-27T10:22:55.107Z,46.50
2018-07-27T10:25:23.756Z,46.30
2018-07-27T10:27:52.482Z,46.30
2018-07-27T10:30:21.326Z,46.40
2018-07-27T10:32:50.017Z,46.30
2018-07-27T10:35:18.695Z,46.10
2018-07-27T10:37:47.895Z,46.00
2018-07-27T10:40:16.632Z,45.90
2018-07-27T10:42:45.305Z,46.10
2018-07-27T10:45:14.321Z,45.80
2018-07-27T10:47:42.983Z,45.60
2018-07-27T10:50:11.730Z,45.60
2018-07-27T10:52:40.637Z,45.40
2018-07-27T10:55:09.703Z,45.30
2018-07-27T10:57:38.733Z,45.10
2018-07-27T11:02:40.542Z,44.80
2018-07-27T11:05:09.619Z,44.70
2018-07-27T11:07:38.315Z,44.50
2018-07-27T11:10:07.795Z,44.30
2018-07-27T11:15:06.241Z,44.20
2018-07-27T11:17:34.904Z,44.10
2018-07-27T11:20:04.468Z,43.80
2018-07-27T11:22:33.579Z,43.40
2018-07-27T11:25:02.203Z,42.80
2018-07-27T11:27:31.048Z,42.60
2018-07-27T11:32:28.343Z,42.10
2018-07-27T11:34:57.009Z,41.90
2018-07-27T11:37:25.864Z,41.70
2018-07-27T11:39:54.720Z,41.60
2018-07-27T11:42:23.806Z,42.00
2018-07-27T11:44:52.656Z,42.10
2018-07-27T11:47:21.336Z,42.50
2018-07-27T11:49:50.022Z,43.80
2018-07-27T11:52:18.687Z,44.50
2018-07-27T11:54:47.336Z,44.90
2018-07-27T11:57:16.480Z,44.60
2018-07-27T11:59:45.204Z,44.40
2018-07-27T12:02:14.172Z,44.20
2018-07-27T12:04:42.923Z,43.90
2018-07-27T12:07:11.602Z,43.80
2018-07-27T12:09:40.608Z,43.70
2018-07-27T12:12:09.550Z,43.70
2018-07-27T12:14:38.305Z,43.80
2018-07-27T12:17:07.092Z,44.00
2018-07-27T12:19:35.788Z,44.00
2018-07-27T12:22:04.642Z,44.10
2018-07-27T12:24:33.278Z,43.90
2018-07-27T12:27:01.998Z,43.90
2018-07-27T12:29:31.200Z,43.60
2018-07-27T12:31:59.996Z,43.40
2018-07-27T12:34:28.732Z,43.50
2018-07-27T12:36:57.388Z,43.50
2018-07-27T12:39:26.099Z,43.50
2018-07-27T12:41:54.887Z,43.30
2018-07-27T12:44:23.499Z,43.00
2018-07-27T12:46:52.159Z,42.70
2018-07-27T12:51:49.235Z,42.60
2018-07-27T12:54:17.909Z,42.50
2018-07-27T12:56:46.645Z,43.10
2018-07-27T12:59:15.421Z,42.40
2018-07-27T13:01:44.135Z,42.30
2018-07-27T13:04:12.969Z,42.30
2018-07-27T13:06:41.609Z,42.00
2018-07-27T13:09:11.905Z,41.80
2018-07-27T13:11:41.353Z,41.50
2018-07-27T13:14:10.023Z,41.30
2018-07-27T13:16:38.631Z,41.10
2018-07-27T13:19:07.293Z,40.90
2018-07-27T13:21:35.983Z,40.80
2018-07-27T13:24:05.150Z,40.80
2018-07-27T13:26:34.133Z,40.60
2018-07-27T13:29:02.982Z,40.60
2018-07-27T13:31:56.080Z,40.60
2018-07-27T13:34:57.894Z,40.40
2018-07-27T13:37:27.852Z,40.20
2018-07-27T13:39:57.682Z,40.20
2018-07-27T13:42:27.573Z,40.20
2018-07-27T13:44:56.652Z,40.30
2018-07-27T13:47:25.310Z,40.30
2018-07-27T13:49:54.021Z,40.30
2018-07-27T13:52:22.860Z,40.20
2018-07-27T13:54:51.922Z,40.10
2018-07-27T13:57:20.671Z,40.00
2018-07-27T13:59:49.354Z,39.80
2018-07-27T14:02:18.038Z,39.60
2018-07-27T14:04:46.764Z,39.50
2018-07-27T14:07:15.762Z,39.50
2018-07-27T14:09:44.580Z,39.60
2018-07-27T14:12:13.279Z,39.50
2018-07-27T14:14:41.911Z,39.40
2018-07-27T14:19:38.892Z,39.40
2018-07-27T14:22:07.781Z,39.20
2018-07-27T14:24:36.492Z,39.00
2018-07-27T14:27:05.547Z,38.90
2018-07-27T14:29:34.258Z,38.80
2018-07-27T14:32:03.385Z,38.40
2018-07-27T14:34:32.056Z,38.30
2018-07-27T14:37:01.063Z,37.90
2018-07-27T14:39:29.998Z,37.50
2018-07-27T14:44:27.087Z,36.70
2018-07-27T14:46:55.974Z,36.40
2018-07-27T14:49:24.642Z,36.10
2018-07-27T14:51:53.729Z,36.00
2018-07-27T14:54:22.377Z,35.90
2018-07-27T14:56:51.085Z,36.10
2018-07-27T14:59:19.737Z,36.60
2018-07-27T15:01:48.533Z,37.10
2018-07-27T15:04:17.216Z,37.50
2018-07-27T15:06:45.863Z,37.90
2018-07-27T15:09:15.174Z,38.00
2018-07-27T15:11:44.694Z,38.20
2018-07-27T15:14:13.351Z,38.20
2018-07-27T15:16:42.032Z,38.30
2018-07-27T15:19:10.653Z,38.50
2018-07-27T15:21:39.261Z,38.80
2018-07-27T15:24:08.001Z,39.10
2018-07-27T15:26:37.053Z,39.90
2018-07-27T15:29:05.869Z,39.80
2018-07-27T15:31:34.992Z,39.70
2018-07-27T15:34:03.750Z,39.70
2018-07-27T15:36:34.042Z,39.70
2018-07-27T15:39:10.946Z,39.90
2018-07-27T15:41:39.820Z,40.40
2018-07-27T15:44:08.505Z,41.10
2018-07-27T15:46:37.180Z,41.30
2018-07-27T15:49:06.082Z,41.70
2018-07-27T15:51:34.720Z,42.00
2018-07-27T15:54:03.372Z,42.30
2018-07-27T15:56:32.004Z,42.40
2018-07-27T15:59:00.617Z,42.70
2018-07-27T16:01:29.318Z,42.90
2018-07-27T16:03:58.121Z,43.20
2018-07-27T16:06:27.308Z,45.40
2018-07-27T16:08:56.004Z,47.30
2018-07-27T16:11:24.697Z,50.70
2018-07-27T16:13:53.382Z,58.60
2018-07-27T16:16:22.648Z,66.10
2018-07-27T16:18:51.586Z,73.60
2018-07-27T16:21:21.067Z,79.20
2018-07-27T16:26:18.691Z,84.70
2018-07-27T16:28:47.863Z,85.80
2018-07-27T16:31:16.858Z,86.30
2018-07-27T16:33:45.804Z,87.10
2018-07-27T16:36:15.259Z,87.70
2018-07-27T16:38:44.303Z,88.60
2018-07-27T16:41:13.383Z,89.20
2018-07-27T16:43:42.573Z,89.50
2018-07-27T16:46:17.555Z,89.40
2018-07-27T16:48:51.968Z,89.20
2018-07-27T16:51:21.149Z,88.60
2018-07-27T16:53:50.190Z,88.60
2018-07-27T16:56:19.163Z,88.50
2018-07-27T16:58:48.171Z,88.10
2018-07-27T17:01:19.124Z,88.30
2018-07-27T17:03:48.103Z,87.80
2018-07-27T17:06:17.205Z,87.80
2018-07-27T17:08:46.360Z,88.10
2018-07-27T17:11:15.721Z,87.70
2018-07-27T17:13:47.645Z,87.00
2018-07-27T17:16:16.732Z,86.60
2018-07-27T17:18:45.822Z,86.10
2018-07-27T17:21:14.818Z,85.90
2018-07-27T17:23:43.796Z,85.80
2018-07-27T17:26:12.722Z,85.50
2018-07-27T17:28:41.998Z,85.30
2018-07-27T17:31:11.014Z,85.10
2018-07-27T17:33:40.240Z,84.80
2018-07-27T17:36:09.188Z,84.70
2018-07-27T17:38:38.508Z,84.50
2018-07-27T17:41:08.212Z,84.80
2018-07-27T17:43:37.529Z,84.40
2018-07-27T17:46:07.208Z,84.10
2018-07-27T17:48:36.312Z,84.30
2018-07-27T17:51:05.620Z,84.20
2018-07-27T17:53:34.894Z,84.30
2018-07-27T17:56:03.868Z,84.30
2018-07-27T17:58:32.846Z,84.10
2018-07-27T18:01:01.801Z,84.00
2018-07-27T18:03:30.801Z,83.80
2018-07-27T18:05:59.760Z,84.00
2018-07-27T18:08:29.140Z,83.80
2018-07-27T18:10:58.096Z,83.90
2018-07-27T18:13:27.089Z,84.00
2018-07-27T18:15:56.006Z,83.80
2018-07-27T18:18:24.965Z,83.90
2018-07-27T18:20:53.928Z,83.80
2018-07-27T18:23:23.428Z,83.30
2018-07-27T18:25:52.463Z,83.50
2018-07-27T18:28:21.774Z,83.50
2018-07-27T18:30:50.815Z,83.60
2018-07-27T18:33:19.885Z,83.50
2018-07-27T18:35:49.028Z,83.30
2018-07-27T18:38:18.084Z,83.30
2018-07-27T18:40:47.817Z,83.10
2018-07-27T18:43:16.797Z,82.90
2018-07-27T18:45:45.795Z,82.70
2018-07-27T18:48:14.875Z,82.50
2018-07-27T18:50:43.879Z,82.00
2018-07-27T18:53:12.877Z,82.30
2018-07-27T18:55:41.908Z,82.30
2018-07-27T18:58:10.997Z,82.30
2018-07-27T19:00:39.980Z,82.40
2018-07-27T19:03:09.055Z,82.50
2018-07-27T19:05:38.039Z,82.30
2018-07-27T19:08:07.013Z,82.50
2018-07-27T19:10:36.031Z,82.60
2018-07-27T19:13:05.269Z,82.50
2018-07-27T19:15:34.349Z,82.50
2018-07-27T19:18:03.391Z,82.60
2018-07-27T19:20:32.385Z,82.60
2018-07-27T19:23:01.381Z,82.60
2018-07-27T19:25:30.357Z,82.60
2018-07-27T19:27:59.559Z,82.80
2018-07-27T19:30:28.625Z,83.00
2018-07-27T19:32:57.789Z,83.00
2018-07-27T19:35:26.889Z,83.10
2018-07-27T19:37:55.952Z,83.20
2018-07-27T19:40:24.986Z,83.20
2018-07-27T19:42:53.956Z,83.10
2018-07-27T19:47:51.782Z,83.30
2018-07-27T19:50:20.791Z,83.40
2018-07-27T19:52:50.309Z,83.50
2018-07-27T19:55:19.348Z,83.60
2018-07-27T19:57:48.409Z,83.80
2018-07-27T20:00:17.405Z,84.00
2018-07-27T20:02:46.404Z,83.80
2018-07-27T20:05:15.374Z,83.60
2018-07-27T20:07:44.366Z,84.60
2018-07-27T20:10:13.446Z,83.50
2018-07-27T20:12:42.448Z,83.50
2018-07-27T20:15:11.606Z,83.30
2018-07-27T20:17:40.562Z,83.50
2018-07-27T20:20:09.917Z,83.50
2018-07-27T20:22:39.060Z,83.60
2018-07-27T20:25:08.364Z,83.50
2018-07-27T20:27:37.314Z,83.50
2018-07-27T20:30:06.798Z,83.40
2018-07-27T20:32:35.782Z,83.30
2018-07-27T20:35:04.849Z,83.20
2018-07-27T20:37:33.874Z,83.20
2018-07-27T20:40:03.271Z,82.50
2018-07-27T20:42:32.310Z,83.40
2018-07-27T20:45:01.285Z,83.60
2018-07-27T20:47:30.431Z,83.70
2018-07-27T20:49:59.523Z,83.80
2018-07-27T20:52:29.215Z,83.90
2018-07-27T20:54:58.161Z,84.30
2018-07-27T20:57:27.463Z,84.50
2018-07-27T20:59:56.457Z,84.50
2018-07-27T21:02:25.539Z,84.70
2018-07-27T21:04:54.493Z,84.70
2018-07-27T21:07:24.154Z,84.80
2018-07-27T21:09:53.230Z,84.80
2018-07-27T21:12:22.341Z,85.00
2018-07-27T21:14:51.402Z,85.00
2018-07-27T21:17:20.503Z,85.10
2018-07-27T21:19:49.511Z,85.20
2018-07-27T21:22:18.443Z,85.40
2018-07-27T21:24:47.408Z,85.40
2018-07-27T21:27:16.708Z,85.50
2018-07-27T21:29:45.901Z,85.60
2018-07-27T21:32:14.864Z,85.70
2018-07-27T21:34:43.854Z,85.90
2018-07-27T21:37:13.460Z,85.90
2018-07-27T21:39:42.501Z,86.00
2018-07-27T21:42:12.595Z,86.20
2018-07-27T21:44:41.804Z,86.30
2018-07-27T21:47:11.738Z,86.40
2018-07-27T21:49:40.697Z,86.30
2018-07-27T21:52:09.645Z,86.40
2018-07-27T21:54:38.622Z,86.40
2018-07-27T21:57:07.561Z,86.50
2018-07-27T21:59:36.710Z,86.60
2018-07-27T22:02:05.675Z,86.70
2018-07-27T22:04:34.846Z,86.70
2018-07-27T22:07:03.822Z,86.70
2018-07-27T22:09:32.784Z,86.90
2018-07-27T22:12:01.773Z,87.00
2018-07-27T22:14:30.784Z,87.00
2018-07-27T22:16:59.776Z,87.00
2018-07-27T22:19:28.716Z,87.00
2018-07-27T22:21:57.778Z,87.00
2018-07-27T22:24:26.727Z,87.20
2018-07-27T22:26:55.672Z,87.20
2018-07-27T22:29:24.593Z,87.20
2018-07-27T22:31:53.556Z,87.20
2018-07-27T22:34:22.542Z,87.20
2018-07-27T22:36:53.032Z,87.20
2018-07-27T22:39:22.270Z,87.20
2018-07-27T22:41:51.214Z,87.30
2018-07-27T22:44:20.152Z,87.20
2018-07-27T22:46:49.150Z,87.20
2018-07-27T22:49:18.092Z,87.30
2018-07-27T22:51:47.032Z,87.30
2018-07-27T22:54:15.953Z,87.30
2018-07-27T22:56:45.067Z,87.40
2018-07-27T22:59:14.490Z,87.50
2018-07-27T23:01:43.467Z,87.40
2018-07-27T23:04:12.515Z,87.50
2018-07-27T23:06:41.464Z,87.40
2018-07-27T23:09:11.777Z,87.20
2018-07-27T23:11:40.730Z,86.90
2018-07-27T23:14:10.061Z,86.90
2018-07-27T23:16:39.343Z,87.00
2018-07-27T23:19:08.260Z,87.10
2018-07-27T23:21:37.225Z,87.00
2018-07-27T23:24:06.406Z,87.10
2018-07-27T23:26:35.683Z,87.10
2018-07-27T23:29:04.678Z,87.00
2018-07-27T23:31:33.979Z,87.00
2018-07-27T23:34:02.926Z,87.20
2018-07-27T23:36:31.862Z,87.20
2018-07-27T23:39:01.159Z,87.30
2018-07-27T23:41:30.298Z,88.00
2018-07-27T23:43:59.374Z,87.30
2018-07-27T23:46:28.322Z,87.50
2018-07-27T23:48:57.396Z,87.50
2018-07-27T23:51:26.302Z,87.40
2018-07-27T23:53:55.716Z,87.30
2018-07-27T23:56:24.669Z,87.30
2018-07-27T23:58:54.404Z,87.30
